Minerva Atlantica — ZCPR7 — position and weather

sailwx.info

Track history (hours):
 
Tides and Currents Weather Stations Pressure Air Temp Water Temp Dewpoint Dewpoint Depression Visibility Wind Speed Wind Dir Waves Ship Positions

Minerva Atlantica

Last reported at 2015-Sep-03 06:33 UTC. Time now 2015-Sep-04 16:34 UTC.
Position N 57°50' E 010°30'.

Length 250 m; draft 13.8 m.

Type: Tanker. MMSI: 319161000.

Date/timePositionNaut miles runAvg speedWind from/ knotsBaromVisibWave heightAir tempDewpointWater temp
2015-Sep-03 06:33N 57°50' E 010°30'10 9.7
2015-Sep-03 05:33N 57°48' E 010°48'1010.3
2015-Sep-03 04:33N 57°40' E 011°01'1111.3
2015-Sep-03 03:33N 57°33' E 011°17'1111.3
2015-Sep-03 02:33N 57°24' E 011°29'1211.9
2015-Sep-03 01:33N 57°12' E 011°36'1211.7
2015-Sep-03 00:33N 57°01' E 011°43'1111.3
2015-Sep-02 23:33N 56°51' E 011°50'1010.1
2015-Sep-02 22:33N 56°41' E 011°50'1211.5
2015-Sep-02 21:31N 56°31' E 011°38'7010.1
2015-Sep-02 14:33N 55°23' E 011°01'1110.4
2015-Sep-02 13:32N 55°13' E 011°06'10 9.9
2015-Sep-02 12:32N 55°04' E 010°60'1010.4
2015-Sep-02 11:32N 54°55' E 010°52'1111.2
2015-Sep-02 10:33N 54°44' E 010°47'9 9.4
2015-Sep-02 09:33N 54°37' E 010°58'1010.3
2015-Sep-02 08:33N 54°35' E 011°15'1110.5
2015-Sep-02 07:33N 54°30' E 011°31'1010.3
2015-Sep-02 06:33N 54°26' E 011°48'1010.1
2015-Sep-02 05:33N 54°26' E 012°05'9 8.7
2015-Sep-02 04:32N 54°33' E 012°15'59 9.9
2015-Sep-01 22:33N 55°00' E 013°46'1111.0
2015-Sep-01 21:33N 55°05' E 014°04'1111.3
2015-Sep-01 20:33N 55°13' E 014°17'1211.6
2015-Sep-01 19:33N 55°22' E 014°29'1111.3
2015-Sep-01 18:33N 55°29' E 014°45'1211.7
2015-Sep-01 17:33N 55°34' E 015°04'1111.4
2015-Sep-01 16:33N 55°39' E 015°23'1111.5
2015-Sep-01 15:33N 55°42' E 015°42'4811.6
2015-Sep-01 11:27N 55°54' E 017°04'1011.4
2015-Sep-01 10:33N 55°56' E 017°22'1111.5
2015-Sep-01 09:33N 55°59' E 017°41'24411.6
2015-Aug-31 12:32N 59°19' E 022°03'1212.0
2015-Aug-31 11:33N 59°26' E 022°21'1211.7
2015-Aug-31 10:32N 59°31' E 022°42'1211.9
2015-Aug-31 09:33N 59°34' E 023°04'1211.9
2015-Aug-31 08:33N 59°38' E 023°27'1211.9
2015-Aug-31 07:33N 59°42' E 023°49'1212.0
2015-Aug-31 06:33N 59°45' E 024°12'1412.1
2015-Aug-31 05:22N 59°49' E 024°39'2611.9
2015-Aug-31 03:12N 59°54' E 025°30'811.8
2015-Aug-31 02:33N 59°55' E 025°45'1211.8
2015-Aug-31 01:33N 59°58' E 026°08'1211.8
2015-Aug-31 00:33N 60°01' E 026°31'1211.4
2015-Aug-30 23:33N 59°60' E 026°54'  
2015-Aug-28 13:30N 60°01' E 027°15'11 8.9
2015-Aug-28 12:18N 59°58' E 026°55'7 9.6
2015-Aug-28 11:33N 59°59' E 026°41'10 9.7
2015-Aug-28 10:32N 59°57' E 026°22'10 9.6
2015-Aug-28 09:31N 59°54' E 026°03'31 9.4
2015-Aug-28 06:12N 59°47' E 025°03'6 9.0
2015-Aug-28 05:33N 59°46' E 024°51'18 9.0
2015-Aug-28 03:33N 59°42' E 024°17'9 9.2
2015-Aug-28 02:33N 59°39' E 023°59'9 9.3
2015-Aug-28 01:33N 59°36' E 023°42'9 9.4
2015-Aug-28 00:33N 59°33' E 023°24'10 9.7
2015-Aug-27 23:33N 59°30' E 023°06'97 9.3
2015-Aug-27 13:07N 58°23' E 020°51'5 9.4
2015-Aug-27 12:33N 58°18' E 020°46'38 9.5
2015-Aug-27 08:33N 57°45' E 020°11'9 9.2
2015-Aug-27 07:33N 57°37' E 020°04'9 9.3
2015-Aug-27 06:33N 57°29' E 019°57'9 9.3
2015-Aug-27 05:33N 57°20' E 019°49'13 9.2
2015-Aug-27 04:06N 57°08' E 019°38'14 9.1
2015-Aug-27 02:33N 56°56' E 019°26'9 9.0
2015-Aug-27 01:30N 56°48' E 019°18'9 9.0
2015-Aug-27 00:32N 56°40' E 019°10'9 9.0
2015-Aug-26 23:32N 56°32' E 019°02'10 8.9
2015-Aug-26 22:21N 56°23' E 018°53'11 8.7
2015-Aug-26 21:08N 56°15' E 018°40'5 9.1
2015-Aug-26 20:33N 56°13' E 018°32'32 9.2
2015-Aug-26 17:05N 55°56' E 017°43'70 9.3
2015-Aug-26 09:33N 55°38' E 015°43'10 9.8
2015-Aug-26 08:33N 55°35' E 015°27'10 9.5
2015-Aug-26 07:33N 55°31' E 015°11'9 9.4
2015-Aug-26 06:33N 55°27' E 014°56'9 9.4
2015-Aug-26 05:33N 55°24' E 014°41'9 9.1
2015-Aug-26 04:33N 55°17' E 014°30'9 9.2
2015-Aug-26 03:33N 55°10' E 014°20'9 9.1
2015-Aug-26 02:33N 55°03' E 014°10'9 9.1
2015-Aug-26 01:33N 54°59' E 013°56'9 9.1
2015-Aug-26 00:33N 54°56' E 013°41'9 9.1
2015-Aug-25 23:33N 54°53' E 013°26'9 9.3
2015-Aug-25 22:32N 54°50' E 013°10'10 9.4
2015-Aug-25 21:30N 54°47' E 012°54'9 9.3
2015-Aug-25 20:33N 54°44' E 012°40'9 9.3
2015-Aug-25 19:33N 54°38' E 012°26'9 9.2
2015-Aug-25 18:33N 54°32' E 012°16'10 9.8
2015-Aug-25 17:33N 54°25' E 012°04'1212.2
2015-Aug-25 16:33N 54°26' E 011°43'1312.7
2015-Aug-25 15:33N 54°31' E 011°23'1212.4
2015-Aug-25 14:33N 54°37' E 011°04'1211.1
2015-Aug-25 13:31N 54°46' E 010°52'1111.1
2015-Aug-25 12:32N 54°57' E 010°57'1110.7
2015-Aug-25 11:33N 55°07' E 011°02'10 9.8
2015-Aug-25 10:33N 55°17' E 011°04'1111.0
2015-Aug-25 09:32N 55°27' E 010°56'6510.6
2015-Aug-25 03:27N 56°28' E 011°34'1112.4
2015-Aug-25 02:33N 56°38' E 011°44'1111.5
2015-Aug-25 01:33N 56°49' E 011°49'1212.2
2015-Aug-25 00:33N 57°01' E 011°41'1212.1
2015-Aug-24 23:33N 57°12' E 011°33'1111.5
2015-Aug-24 22:33N 57°23' E 011°25'1111.0
2015-Aug-24 21:33N 57°32' E 011°14'1111.1
2015-Aug-24 20:33N 57°40' E 010°59'1010.4
2015-Aug-24 19:33N 57°46' E 010°44'8 8.2
2015-Aug-24 18:33N 57°47' E 010°29'9 9.0
2015-Aug-24 17:33N 57°47' E 010°12'  
Track history (hours):
 
Tides and Currents Weather Stations Pressure Air Temp Water Temp Dewpoint Dewpoint Depression Visibility Wind Speed Wind Dir Waves Ship Positions

Minerva Atlantica

Last reported at 2015-Sep-03 06:33 UTC. Time now 2015-Sep-04 16:34 UTC.
Position N 57°50' E 010°30'.

Length 250 m; draft 13.8 m.

Type: Tanker. MMSI: 319161000.

Date/timePositionNaut miles runAvg speedWind from/ knotsBaromVisibWave heightAir tempDewpointWater temp
2015-Sep-03 06:33N 57°50' E 010°30'10 9.7
2015-Sep-03 05:33N 57°48' E 010°48'1010.3
2015-Sep-03 04:33N 57°40' E 011°01'1111.3
2015-Sep-03 03:33N 57°33' E 011°17'1111.3
2015-Sep-03 02:33N 57°24' E 011°29'1211.9
2015-Sep-03 01:33N 57°12' E 011°36'1211.7
2015-Sep-03 00:33N 57°01' E 011°43'1111.3
2015-Sep-02 23:33N 56°51' E 011°50'1010.1
2015-Sep-02 22:33N 56°41' E 011°50'1211.5
2015-Sep-02 21:31N 56°31' E 011°38'7010.1
2015-Sep-02 14:33N 55°23' E 011°01'1110.4
2015-Sep-02 13:32N 55°13' E 011°06'10 9.9
2015-Sep-02 12:32N 55°04' E 010°60'1010.4
2015-Sep-02 11:32N 54°55' E 010°52'1111.2
2015-Sep-02 10:33N 54°44' E 010°47'9 9.4
2015-Sep-02 09:33N 54°37' E 010°58'1010.3
2015-Sep-02 08:33N 54°35' E 011°15'1110.5
2015-Sep-02 07:33N 54°30' E 011°31'1010.3
2015-Sep-02 06:33N 54°26' E 011°48'1010.1
2015-Sep-02 05:33N 54°26' E 012°05'9 8.7
2015-Sep-02 04:32N 54°33' E 012°15'59 9.9
2015-Sep-01 22:33N 55°00' E 013°46'1111.0
2015-Sep-01 21:33N 55°05' E 014°04'1111.3
2015-Sep-01 20:33N 55°13' E 014°17'1211.6
2015-Sep-01 19:33N 55°22' E 014°29'1111.3
2015-Sep-01 18:33N 55°29' E 014°45'1211.7
2015-Sep-01 17:33N 55°34' E 015°04'1111.4
2015-Sep-01 16:33N 55°39' E 015°23'1111.5
2015-Sep-01 15:33N 55°42' E 015°42'4811.6
2015-Sep-01 11:27N 55°54' E 017°04'1011.4
2015-Sep-01 10:33N 55°56' E 017°22'1111.5
2015-Sep-01 09:33N 55°59' E 017°41'24411.6
2015-Aug-31 12:32N 59°19' E 022°03'1212.0
2015-Aug-31 11:33N 59°26' E 022°21'1211.7
2015-Aug-31 10:32N 59°31' E 022°42'1211.9
2015-Aug-31 09:33N 59°34' E 023°04'1211.9
2015-Aug-31 08:33N 59°38' E 023°27'1211.9
2015-Aug-31 07:33N 59°42' E 023°49'1212.0
2015-Aug-31 06:33N 59°45' E 024°12'1412.1
2015-Aug-31 05:22N 59°49' E 024°39'2611.9
2015-Aug-31 03:12N 59°54' E 025°30'811.8
2015-Aug-31 02:33N 59°55' E 025°45'1211.8
2015-Aug-31 01:33N 59°58' E 026°08'1211.8
2015-Aug-31 00:33N 60°01' E 026°31'1211.4
2015-Aug-30 23:33N 59°60' E 026°54'  
2015-Aug-28 13:30N 60°01' E 027°15'11 8.9
2015-Aug-28 12:18N 59°58' E 026°55'7 9.6
2015-Aug-28 11:33N 59°59' E 026°41'10 9.7
2015-Aug-28 10:32N 59°57' E 026°22'10 9.6
2015-Aug-28 09:31N 59°54' E 026°03'31 9.4
2015-Aug-28 06:12N 59°47' E 025°03'6 9.0
2015-Aug-28 05:33N 59°46' E 024°51'18 9.0
2015-Aug-28 03:33N 59°42' E 024°17'9 9.2
2015-Aug-28 02:33N 59°39' E 023°59'9 9.3
2015-Aug-28 01:33N 59°36' E 023°42'9 9.4
2015-Aug-28 00:33N 59°33' E 023°24'10 9.7
2015-Aug-27 23:33N 59°30' E 023°06'97 9.3
2015-Aug-27 13:07N 58°23' E 020°51'5 9.4
2015-Aug-27 12:33N 58°18' E 020°46'38 9.5
2015-Aug-27 08:33N 57°45' E 020°11'9 9.2
2015-Aug-27 07:33N 57°37' E 020°04'9 9.3
2015-Aug-27 06:33N 57°29' E 019°57'9 9.3
2015-Aug-27 05:33N 57°20' E 019°49'13 9.2
2015-Aug-27 04:06N 57°08' E 019°38'14 9.1
2015-Aug-27 02:33N 56°56' E 019°26'9 9.0
2015-Aug-27 01:30N 56°48' E 019°18'9 9.0
2015-Aug-27 00:32N 56°40' E 019°10'9 9.0
2015-Aug-26 23:32N 56°32' E 019°02'10 8.9
2015-Aug-26 22:21N 56°23' E 018°53'11 8.7
2015-Aug-26 21:08N 56°15' E 018°40'5 9.1
2015-Aug-26 20:33N 56°13' E 018°32'32 9.2
2015-Aug-26 17:05N 55°56' E 017°43'70 9.3
2015-Aug-26 09:33N 55°38' E 015°43'10 9.8
2015-Aug-26 08:33N 55°35' E 015°27'10 9.5
2015-Aug-26 07:33N 55°31' E 015°11'9 9.4
2015-Aug-26 06:33N 55°27' E 014°56'9 9.4
2015-Aug-26 05:33N 55°24' E 014°41'9 9.1
2015-Aug-26 04:33N 55°17' E 014°30'9 9.2
2015-Aug-26 03:33N 55°10' E 014°20'9 9.1
2015-Aug-26 02:33N 55°03' E 014°10'9 9.1
2015-Aug-26 01:33N 54°59' E 013°56'9 9.1
2015-Aug-26 00:33N 54°56' E 013°41'9 9.1
2015-Aug-25 23:33N 54°53' E 013°26'9 9.3
2015-Aug-25 22:32N 54°50' E 013°10'10 9.4
2015-Aug-25 21:30N 54°47' E 012°54'9 9.3
2015-Aug-25 20:33N 54°44' E 012°40'9 9.3
2015-Aug-25 19:33N 54°38' E 012°26'9 9.2
2015-Aug-25 18:33N 54°32' E 012°16'10 9.8
2015-Aug-25 17:33N 54°25' E 012°04'1212.2
2015-Aug-25 16:33N 54°26' E 011°43'1312.7
2015-Aug-25 15:33N 54°31' E 011°23'1212.4
2015-Aug-25 14:33N 54°37' E 011°04'1211.1
2015-Aug-25 13:31N 54°46' E 010°52'1111.1
2015-Aug-25 12:32N 54°57' E 010°57'1110.7
2015-Aug-25 11:33N 55°07' E 011°02'10 9.8
2015-Aug-25 10:33N 55°17' E 011°04'1111.0
2015-Aug-25 09:32N 55°27' E 010°56'6510.6
2015-Aug-25 03:27N 56°28' E 011°34'1112.4
2015-Aug-25 02:33N 56°38' E 011°44'1111.5
2015-Aug-25 01:33N 56°49' E 011°49'1212.2
2015-Aug-25 00:33N 57°01' E 011°41'1212.1
2015-Aug-24 23:33N 57°12' E 011°33'1111.5
2015-Aug-24 22:33N 57°23' E 011°25'1111.0
2015-Aug-24 21:33N 57°32' E 011°14'1111.1
2015-Aug-24 20:33N 57°40' E 010°59'1010.4
2015-Aug-24 19:33N 57°46' E 010°44'8 8.2
2015-Aug-24 18:33N 57°47' E 010°29'9 9.0
2015-Aug-24 17:33N 57°47' E 010°12'  

Dump ship's entire track history